Time;durP1;ratioP1;P1;durP2;ratioP2;P2;SDS_P1;SDS_P2;PMS_P1;PMS_P2;Temp;Humidity;BMP_temperature;BMP_pressure;BME280_temperature;BME280_humidity;BME280_pressure;Samples;Min_cycle;Max_cycle;Signal;HPM_P1;HPM_P2
2022/12/21 00:02:19;;;;;;;7.80;7.60;;;3.70;99.90;;;;;;5084195;28;20246;-81
2022/12/21 00:04:46;;;;;;;7.80;7.60;;;3.80;99.90;;;;;;5083290;28;20321;-81
2022/12/21 00:07:16;;;;;;;7.67;7.47;;;3.80;99.90;;;;;;5084601;28;20292;-82
2022/12/21 00:09:43;;;;;;;7.60;7.40;;;3.80;99.90;;;;;;5084677;28;20324;-81
2022/12/21 00:12:11;;;;;;;7.70;7.50;;;3.80;99.90;;;;;;5084289;28;20222;-81
2022/12/21 00:17:04;;;;;;;7.57;7.37;;;3.80;99.90;;;;;;5087611;22;20245;-81
2022/12/21 00:19:31;;;;;;;7.80;7.60;;;3.80;99.90;;;;;;5062932;28;20236;-82
2022/12/21 00:22:05;;;;;;;7.70;7.50;;;3.80;99.90;;;;;;5061538;28;20251;-82
2022/12/21 00:24:37;;;;;;;7.60;7.40;;;3.80;99.90;;;;;;5050656;28;20231;-81
2022/12/21 00:27:05;;;;;;;7.60;7.40;;;3.80;99.90;;;;;;5030045;28;20267;-82
2022/12/21 00:29:33;;;;;;;7.60;7.40;;;3.70;99.90;;;;;;5027577;28;20246;-81
2022/12/21 00:32:02;;;;;;;7.60;7.40;;;3.70;99.90;;;;;;5028023;28;20232;-81
2022/12/21 00:34:32;;;;;;;7.60;7.40;;;3.70;99.90;;;;;;5027346;28;20236;-81
2022/12/21 00:37:03;;;;;;;7.33;7.13;;;3.70;99.90;;;;;;5028223;28;20287;-81
2022/12/21 00:39:34;;;;;;;7.40;7.20;;;3.70;99.90;;;;;;5031255;28;20285;-81
2022/12/21 00:42:02;;;;;;;7.47;7.27;;;3.60;99.90;;;;;;5036025;28;20284;-81
2022/12/21 00:44:29;;;;;;;7.33;7.13;;;3.70;99.90;;;;;;5029611;28;20252;-81
2022/12/21 00:46:59;;;;;;;7.50;7.30;;;3.70;99.90;;;;;;5028092;28;20263;-81
2022/12/21 00:49:28;;;;;;;7.20;7.00;;;3.70;99.90;;;;;;5028791;28;20263;-81
2022/12/21 00:51:58;;;;;;;7.20;7.00;;;3.70;99.90;;;;;;5028160;28;20224;-81
2022/12/21 00:54:27;;;;;;;7.50;7.30;;;3.80;99.90;;;;;;5027885;28;20259;-81
2022/12/21 00:56:59;;;;;;;7.30;7.10;;;3.80;99.90;;;;;;5028436;28;20291;-81
2022/12/21 00:59:27;;;;;;;7.30;7.10;;;3.80;99.90;;;;;;5027906;28;20259;-82
2022/12/21 01:01:55;;;;;;;7.07;6.87;;;3.80;99.90;;;;;;5027638;28;20287;-82
2022/12/21 01:04:25;;;;;;;7.27;7.07;;;3.80;99.90;;;;;;5027249;28;20260;-82
2022/12/21 01:06:54;;;;;;;7.10;6.90;;;3.80;99.90;;;;;;5027932;28;20260;-82
2022/12/21 01:09:24;;;;;;;7.30;7.10;;;3.80;99.90;;;;;;5028429;28;20300;-82
2022/12/21 01:11:53;;;;;;;7.23;7.03;;;3.80;99.90;;;;;;5027480;28;20239;-81
2022/12/21 01:14:25;;;;;;;7.30;7.10;;;3.80;99.90;;;;;;5026976;28;20236;-82
2022/12/21 01:16:53;;;;;;;7.33;7.13;;;3.80;99.90;;;;;;5027609;28;20271;-81
2022/12/21 01:19:21;;;;;;;7.50;7.30;;;3.80;99.90;;;;;;5027569;28;20280;-81
2022/12/21 01:21:51;;;;;;;7.20;7.00;;;3.80;99.90;;;;;;5027430;28;20252;-81
2022/12/21 01:24:20;;;;;;;7.23;7.03;;;3.80;99.90;;;;;;5027915;28;20283;-82
2022/12/21 01:26:50;;;;;;;7.20;7.00;;;3.70;99.90;;;;;;5028088;28;20259;-81
2022/12/21 01:29:19;;;;;;;7.30;7.10;;;3.70;99.90;;;;;;5032759;28;20276;-81
2022/12/21 01:31:58;;;;;;;6.83;6.63;;;3.60;99.90;;;;;;5041988;28;20237;-82
2022/12/21 01:34:28;;;;;;;7.00;6.80;;;3.60;99.90;;;;;;5028858;28;20240;-82
2022/12/21 01:36:57;;;;;;;7.00;6.80;;;3.60;99.90;;;;;;5028801;28;20256;-81
2022/12/21 01:39:28;;;;;;;7.20;7.00;;;3.60;99.90;;;;;;5031002;28;20294;-82
2022/12/21 01:41:57;;;;;;;7.10;6.90;;;3.70;99.90;;;;;;5029881;28;20231;-81
2022/12/21 01:45:02;;;;;;;7.17;6.97;;;3.70;99.90;;;;;;5030220;28;20315;-81
2022/12/21 01:47:41;;;;;;;6.97;6.77;;;3.70;99.90;;;;;;5029850;28;20348;-81
2022/12/21 01:50:39;;;;;;;6.73;6.53;;;3.70;99.90;;;;;;5029874;28;20330;-81
2022/12/21 01:53:14;;;;;;;7.10;6.90;;;3.60;99.90;;;;;;5029381;28;20334;-80
2022/12/21 01:55:44;;;;;;;6.93;6.73;;;3.60;99.90;;;;;;5029819;28;20238;-81
2022/12/21 01:58:13;;;;;;;6.70;6.50;;;3.60;99.90;;;;;;5031523;28;20327;-81
2022/12/21 02:00:42;;;;;;;6.90;6.70;;;3.60;99.90;;;;;;5031903;28;20319;-81
2022/12/21 02:03:21;;;;;;;7.00;6.80;;;3.60;99.90;;;;;;5030171;28;20287;-81
2022/12/21 02:05:59;;;;;;;6.80;6.60;;;3.60;99.90;;;;;;5029636;28;20236;-81
2022/12/21 02:08:28;;;;;;;7.00;6.80;;;3.60;99.90;;;;;;5030569;28;20307;-81
2022/12/21 02:10:58;;;;;;;6.80;6.60;;;3.60;99.90;;;;;;5029209;28;20324;-81
2022/12/21 02:13:27;;;;;;;6.90;6.70;;;3.50;99.90;;;;;;5034756;28;20231;-81
2022/12/21 02:16:15;;;;;;;7.10;6.90;;;3.50;99.90;;;;;;5043888;28;20327;-81
2022/12/21 02:19:19;;;;;;;6.90;6.70;;;3.50;99.90;;;;;;5029487;28;20296;-82
2022/12/21 02:21:58;;;;;;;7.00;6.80;;;3.60;99.90;;;;;;5029191;28;20244;-81
2022/12/21 02:25:12;;;;;;;6.80;6.60;;;3.60;99.90;;;;;;5030362;28;20228;-81
2022/12/21 02:28:33;;;;;;;6.70;6.50;;;3.60;99.90;;;;;;5030394;28;20296;-81
2022/12/21 02:31:31;;;;;;;6.93;6.73;;;3.60;99.90;;;;;;5031702;28;20236;-80
2022/12/21 02:34:17;;;;;;;7.00;6.80;;;3.60;99.90;;;;;;5029584;28;20232;-81
2022/12/21 02:36:56;;;;;;;6.97;6.77;;;3.60;99.90;;;;;;5029722;28;20250;-81
2022/12/21 02:39:35;;;;;;;7.00;6.80;;;3.60;99.90;;;;;;5030446;28;20255;-81
2022/12/21 02:44:12;;;;;;;7.03;6.83;;;3.60;99.90;;;;;;5030586;28;20223;-81
2022/12/21 02:45:02;;;;;;;6.90;6.70;;;3.60;99.90;;;;;;5029955;28;20228;-80
2022/12/21 02:47:45;;;;;;;6.80;6.60;;;3.60;99.90;;;;;;5030136;28;20244;-80
2022/12/21 02:50:15;;;;;;;6.80;6.60;;;3.60;99.90;;;;;;5029616;28;20255;-81
2022/12/21 02:52:52;;;;;;;6.93;6.73;;;3.60;99.90;;;;;;5030391;28;20251;-81
2022/12/21 02:55:21;;;;;;;7.07;6.87;;;3.70;99.90;;;;;;5029311;28;20231;-80
2022/12/21 02:57:51;;;;;;;7.00;6.80;;;3.70;99.90;;;;;;5031084;28;20217;-81
2022/12/21 03:00:20;;;;;;;6.80;6.60;;;3.70;99.90;;;;;;5030387;28;20242;-81
2022/12/21 03:09:09;;;;;;;6.87;6.67;;;3.70;99.90;;;;;;5029146;28;20238;-81
2022/12/21 03:11:46;;;;;;;6.90;6.70;;;3.70;99.90;;;;;;5029657;28;20236;-80
2022/12/21 03:14:34;;;;;;;7.00;6.80;;;3.70;99.90;;;;;;5029317;28;20220;-81
2022/12/21 03:17:12;;;;;;;6.97;6.77;;;3.70;99.90;;;;;;5029527;28;20335;-81
2022/12/21 03:19:51;;;;;;;7.10;6.90;;;3.70;99.90;;;;;;5030205;28;20228;-81
2022/12/21 03:22:30;;;;;;;7.20;7.00;;;3.70;99.90;;;;;;5029196;28;20270;-80
2022/12/21 03:25:05;;;;;;;7.20;7.00;;;3.70;99.90;;;;;;5029357;28;20232;-81
2022/12/21 03:27:45;;;;;;;7.20;7.00;;;3.80;99.90;;;;;;5029328;28;20236;-81
2022/12/21 03:30:16;;;;;;;7.10;6.90;;;3.80;99.90;;;;;;5029371;28;20237;-81
2022/12/21 03:32:49;;;;;;;7.20;7.00;;;3.80;99.90;;;;;;5028741;28;20264;-80
2022/12/21 03:35:30;;;;;;;7.20;7.00;;;3.80;99.90;;;;;;5028395;28;20323;-81
2022/12/21 03:38:02;;;;;;;7.20;7.00;;;3.80;99.90;;;;;;5029089;28;20291;-80
2022/12/21 03:43:28;;;;;;;7.10;6.90;;;3.90;99.90;;;;;;5027996;28;20289;-81
2022/12/21 03:46:05;;;;;;;7.20;7.00;;;3.90;99.90;;;;;;5036105;28;20287;-80
2022/12/21 03:51:39;;;;;;;7.00;6.80;;;3.90;99.90;;;;;;5030099;28;20212;-81
2022/12/21 03:54:17;;;;;;;7.00;6.80;;;3.90;99.90;;;;;;5029378;28;20240;-81
2022/12/21 03:56:46;;;;;;;6.93;6.73;;;3.90;99.90;;;;;;5028046;28;20295;-80
2022/12/21 03:59:16;;;;;;;6.97;6.77;;;4.00;99.90;;;;;;5029560;28;20299;-81
2022/12/21 04:01:57;;;;;;;6.97;6.77;;;4.00;99.90;;;;;;5027195;28;20288;-81
2022/12/21 04:04:33;;;;;;;7.10;6.90;;;4.00;99.90;;;;;;5032222;28;20299;-80
2022/12/21 04:07:10;;;;;;;7.00;6.80;;;4.00;99.90;;;;;;5029528;28;20239;-80
2022/12/21 04:09:40;;;;;;;6.83;6.63;;;4.00;99.90;;;;;;5029017;28;20318;-80
2022/12/21 04:14:56;;;;;;;7.00;6.80;;;4.00;99.90;;;;;;5034332;28;20250;-80
2022/12/21 04:17:26;;;;;;;7.20;7.00;;;4.00;99.90;;;;;;5032423;28;20271;-81
2022/12/21 04:19:58;;;;;;;7.00;6.80;;;4.00;99.90;;;;;;5030167;28;20255;-81
2022/12/21 04:28:08;;;;;;;7.30;7.10;;;4.10;99.90;;;;;;5029235;28;20213;-81
2022/12/21 04:30:38;;;;;;;7.27;7.07;;;4.10;99.90;;;;;;5029229;28;20224;-80
2022/12/21 04:33:07;;;;;;;7.00;6.80;;;4.10;99.90;;;;;;5028372;28;20327;-80
2022/12/21 04:35:36;;;;;;;7.10;6.90;;;4.10;99.90;;;;;;5028371;28;20351;-80
2022/12/21 04:38:08;;;;;;;7.07;6.87;;;4.20;99.90;;;;;;5029042;28;20278;-81
2022/12/21 04:40:35;;;;;;;7.10;6.90;;;4.20;99.90;;;;;;5027892;28;20220;-81
2022/12/21 04:43:04;;;;;;;7.20;7.00;;;4.20;99.90;;;;;;5027786;28;20319;-80
2022/12/21 04:45:33;;;;;;;7.17;6.97;;;4.20;99.90;;;;;;5028532;28;20296;-81
2022/12/21 04:48:03;;;;;;;7.20;7.00;;;4.20;99.90;;;;;;5031809;28;20240;-81
2022/12/21 04:50:32;;;;;;;7.27;7.07;;;4.20;99.90;;;;;;5031671;28;20236;-81
2022/12/21 04:53:02;;;;;;;7.07;6.87;;;4.20;99.90;;;;;;5032365;28;20212;-80
2022/12/21 04:55:40;;;;;;;7.20;7.00;;;4.30;99.90;;;;;;5032823;28;20255;-81
2022/12/21 04:58:09;;;;;;;7.17;6.97;;;4.30;99.90;;;;;;5030394;28;20311;-81
2022/12/21 05:00:39;;;;;;;6.93;6.73;;;4.30;99.90;;;;;;5029229;28;20340;-81
2022/12/21 05:03:10;;;;;;;7.27;7.07;;;4.40;99.90;;;;;;5028357;28;20252;-80
2022/12/21 05:05:38;;;;;;;7.10;6.90;;;4.40;99.90;;;;;;5028434;28;20236;-81
2022/12/21 05:08:07;;;;;;;7.10;6.90;;;4.40;99.90;;;;;;5028494;28;20236;-81
2022/12/21 05:10:47;;;;;;;7.20;7.00;;;4.40;99.90;;;;;;5027075;28;20236;-81
2022/12/21 05:13:23;;;;;;;6.83;6.63;;;4.40;99.90;;;;;;5026692;28;20236;-80
2022/12/21 05:15:53;;;;;;;6.97;6.77;;;4.40;99.90;;;;;;5025703;28;20294;-81
2022/12/21 05:18:23;;;;;;;7.10;6.90;;;4.50;99.90;;;;;;5027852;28;20236;-81
2022/12/21 05:20:52;;;;;;;6.93;6.73;;;4.50;99.90;;;;;;5026982;28;20298;-81
2022/12/21 05:23:31;;;;;;;6.90;6.70;;;4.60;99.90;;;;;;5027900;28;20228;-81
2022/12/21 05:26:14;;;;;;;6.90;6.70;;;4.60;99.90;;;;;;5026729;28;20251;-81
2022/12/21 05:28:47;;;;;;;7.00;6.80;;;4.60;99.90;;;;;;5026605;28;20234;-80
2022/12/21 05:31:16;;;;;;;7.30;7.10;;;4.60;99.90;;;;;;5025366;28;20259;-80
2022/12/21 05:33:45;;;;;;;7.00;6.80;;;4.60;99.90;;;;;;5026177;28;20263;-79
2022/12/21 05:36:17;;;;;;;7.23;7.03;;;4.70;99.90;;;;;;5028539;28;20259;-80
2022/12/21 05:38:53;;;;;;;7.20;7.00;;;4.70;99.90;;;;;;5028907;28;20244;-80
2022/12/21 05:44:14;;;;;;;7.00;6.80;;;4.70;99.90;;;;;;5023564;28;20287;-81
2022/12/21 05:46:42;;;;;;;7.10;6.90;;;4.70;99.90;;;;;;5027291;28;20241;-81
2022/12/21 05:49:13;;;;;;;7.00;6.80;;;4.80;99.90;;;;;;5026333;28;20232;-81
2022/12/21 05:51:41;;;;;;;7.10;6.90;;;4.80;99.90;;;;;;5026030;28;20255;-80
2022/12/21 05:54:09;;;;;;;7.30;7.10;;;4.80;99.90;;;;;;5026452;28;20239;-80
2022/12/21 05:56:48;;;;;;;7.40;7.20;;;4.80;99.90;;;;;;5035780;28;20228;-81
2022/12/21 05:59:26;;;;;;;7.60;7.40;;;4.80;99.90;;;;;;5044158;28;20293;-80
2022/12/21 06:01:56;;;;;;;7.13;6.93;;;4.90;99.90;;;;;;5042992;28;20219;-80
2022/12/21 06:07:04;;;;;;;7.30;7.10;;;4.90;99.90;;;;;;5047242;28;20319;-80
2022/12/21 06:09:35;;;;;;;7.17;6.97;;;4.90;99.90;;;;;;5045959;28;20307;-80
2022/12/21 06:12:11;;;;;;;7.20;7.00;;;5.00;99.90;;;;;;5045712;28;20338;-80
2022/12/21 06:17:26;;;;;;;7.20;7.00;;;5.00;99.90;;;;;;5093810;22;20758;-80
2022/12/21 06:19:54;;;;;;;7.20;7.00;;;5.10;99.90;;;;;;5084952;28;20273;-81
2022/12/21 06:22:23;;;;;;;7.50;7.30;;;5.10;99.90;;;;;;5074359;28;20294;-81
2022/12/21 06:24:51;;;;;;;6.87;6.67;;;5.10;99.90;;;;;;5086249;28;20252;-81
2022/12/21 06:27:20;;;;;;;6.80;6.60;;;5.10;99.90;;;;;;5087453;28;20282;-81
2022/12/21 06:29:47;;;;;;;6.97;6.77;;;5.10;99.90;;;;;;5087209;28;20257;-81
2022/12/21 06:32:15;;;;;;;6.87;6.67;;;5.10;99.90;;;;;;5086213;28;20257;-81
2022/12/21 06:34:42;;;;;;;7.23;7.03;;;5.20;99.90;;;;;;5087002;28;20225;-81
2022/12/21 06:37:10;;;;;;;7.20;7.00;;;5.20;99.90;;;;;;5086881;28;20269;-80
2022/12/21 06:39:37;;;;;;;7.10;6.90;;;5.20;99.90;;;;;;5087188;28;20230;-80
2022/12/21 06:42:07;;;;;;;7.13;6.93;;;5.30;99.90;;;;;;5085455;28;20245;-80
2022/12/21 06:44:36;;;;;;;7.60;7.40;;;5.30;99.90;;;;;;5079226;28;20318;-80
2022/12/21 06:47:04;;;;;;;7.60;7.40;;;5.40;99.90;;;;;;5082806;28;20238;-82
2022/12/21 06:49:32;;;;;;;7.97;7.77;;;5.40;99.90;;;;;;5087756;28;20226;-82
2022/12/21 06:51:59;;;;;;;8.00;7.80;;;5.40;99.90;;;;;;5087356;28;20226;-82
2022/12/21 06:54:27;;;;;;;7.80;7.60;;;5.40;99.90;;;;;;5089229;28;20281;-82
2022/12/21 06:56:54;;;;;;;7.97;7.77;;;5.50;99.90;;;;;;5083363;28;20265;-81
2022/12/21 06:59:22;;;;;;;7.80;7.60;;;5.50;99.90;;;;;;5077898;28;20234;-81
2022/12/21 07:01:51;;;;;;;7.97;7.77;;;5.50;99.90;;;;;;5086180;28;20325;-82
2022/12/21 07:04:19;;;;;;;7.90;7.70;;;5.50;99.90;;;;;;5087036;28;20229;-80
2022/12/21 07:06:48;;;;;;;8.03;7.83;;;5.60;99.90;;;;;;5087589;28;20294;-80
2022/12/21 07:09:16;;;;;;;7.90;7.70;;;5.60;99.90;;;;;;5087553;28;20284;-81
2022/12/21 07:11:43;;;;;;;7.93;7.73;;;5.60;99.90;;;;;;5087847;28;20265;-80
2022/12/21 07:14:11;;;;;;;7.80;7.60;;;5.60;99.90;;;;;;5087244;28;20230;-81
2022/12/21 07:16:39;;;;;;;7.70;7.50;;;5.60;99.90;;;;;;5088711;28;20230;-79
2022/12/21 07:19:08;;;;;;;7.47;7.27;;;5.70;99.90;;;;;;5089423;28;20258;-81
2022/12/21 07:21:35;;;;;;;7.70;7.50;;;5.60;99.90;;;;;;5086050;28;20296;-78
2022/12/21 07:24:03;;;;;;;7.40;7.20;;;5.60;99.90;;;;;;5085269;28;20277;-80
2022/12/21 07:26:31;;;;;;;7.50;7.30;;;5.70;99.90;;;;;;5087975;28;20238;-79
2022/12/21 07:28:58;;;;;;;7.60;7.40;;;5.70;99.90;;;;;;5088168;28;20338;-78
2022/12/21 07:31:27;;;;;;;7.53;7.33;;;5.70;99.90;;;;;;5087579;28;20237;-80
2022/12/21 07:33:55;;;;;;;7.50;7.30;;;5.70;99.90;;;;;;5086733;28;20231;-79
2022/12/21 07:36:24;;;;;;;7.43;7.23;;;5.80;99.90;;;;;;5086008;28;20306;-79
2022/12/21 07:38:53;;;;;;;7.40;7.20;;;5.80;99.90;;;;;;5086402;28;20230;-80
2022/12/21 07:41:21;;;;;;;7.57;7.37;;;5.80;99.90;;;;;;5085895;28;20238;-79
2022/12/21 07:43:49;;;;;;;7.63;7.43;;;5.90;99.90;;;;;;5086173;28;20253;-80
2022/12/21 07:46:18;;;;;;;7.47;7.27;;;5.90;99.90;;;;;;5086154;28;20309;-79
2022/12/21 07:48:46;;;;;;;7.80;7.60;;;5.90;99.90;;;;;;5087053;28;20230;-79
2022/12/21 07:51:13;;;;;;;7.70;7.50;;;5.90;99.90;;;;;;5086961;28;20234;-79
2022/12/21 07:53:43;;;;;;;7.70;7.50;;;5.90;99.90;;;;;;5095329;28;20281;-79
2022/12/21 07:56:14;;;;;;;7.80;7.60;;;5.90;99.90;;;;;;5087674;28;20264;-79
2022/12/21 07:58:42;;;;;;;7.70;7.50;;;5.90;99.90;;;;;;5086663;28;20250;-79
2022/12/21 08:01:11;;;;;;;8.00;7.80;;;5.90;99.90;;;;;;5084189;28;20242;-80
2022/12/21 08:03:41;;;;;;;7.67;7.47;;;5.90;99.90;;;;;;5085182;28;20218;-80
2022/12/21 08:06:09;;;;;;;7.40;7.20;;;5.90;99.90;;;;;;5085197;28;20238;-79
2022/12/21 08:08:38;;;;;;;7.70;7.50;;;5.90;99.90;;;;;;5085640;28;20306;-79
2022/12/21 08:11:13;;;;;;;7.93;7.73;;;6.00;99.90;;;;;;5086375;28;20248;-79
2022/12/21 08:13:42;;;;;;;7.60;7.40;;;6.00;99.90;;;;;;5086620;28;20313;-79
2022/12/21 08:16:13;;;;;;;7.47;7.27;;;6.00;99.90;;;;;;5086300;28;20264;-79
2022/12/21 08:18:40;;;;;;;7.60;7.40;;;6.00;99.90;;;;;;5093226;28;21054;-79
2022/12/21 08:21:08;;;;;;;7.00;6.80;;;6.00;99.90;;;;;;5094438;28;20289;-79
2022/12/21 08:23:35;;;;;;;7.20;7.00;;;6.00;99.90;;;;;;5100315;28;20234;-78
2022/12/21 08:26:06;;;;;;;7.33;7.13;;;6.00;99.90;;;;;;5100342;28;20221;-78
2022/12/21 08:28:34;;;;;;;7.13;6.93;;;6.10;99.90;;;;;;5091723;28;20258;-79
2022/12/21 08:31:03;;;;;;;7.30;7.10;;;6.10;99.90;;;;;;5090149;28;20234;-79
2022/12/21 08:33:31;;;;;;;7.07;6.87;;;6.10;99.90;;;;;;5088170;28;20215;-79
2022/12/21 08:35:58;;;;;;;7.47;7.27;;;6.10;99.90;;;;;;5087227;28;20257;-79
2022/12/21 08:38:26;;;;;;;7.37;7.17;;;6.10;99.90;;;;;;5087557;28;20240;-79
2022/12/21 08:40:54;;;;;;;7.20;7.00;;;6.10;99.90;;;;;;5083630;28;20253;-79
2022/12/21 08:43:24;;;;;;;7.50;7.30;;;6.10;99.90;;;;;;5068371;28;20250;-79
2022/12/21 08:45:52;;;;;;;7.50;7.30;;;6.10;99.90;;;;;;5085184;28;20258;-79
2022/12/21 08:48:19;;;;;;;7.40;7.20;;;6.10;99.90;;;;;;5085529;28;20268;-79
2022/12/21 08:50:51;;;;;;;7.40;7.20;;;6.10;99.90;;;;;;5085921;28;20321;-78
2022/12/21 08:53:19;;;;;;;7.43;7.23;;;6.10;99.90;;;;;;5087525;28;20218;-79
2022/12/21 08:55:48;;;;;;;7.37;7.17;;;6.10;99.90;;;;;;5088455;28;20305;-79
2022/12/21 08:58:16;;;;;;;7.40;7.20;;;6.20;99.90;;;;;;5087734;28;20238;-79
2022/12/21 09:00:46;;;;;;;7.07;6.87;;;6.20;99.90;;;;;;5087576;28;20294;-80
2022/12/21 09:03:14;;;;;;;6.87;6.67;;;6.20;99.90;;;;;;5086193;28;20242;-79
2022/12/21 09:05:42;;;;;;;7.13;6.93;;;6.20;99.90;;;;;;5086315;28;20230;-79
2022/12/21 09:08:10;;;;;;;6.90;6.70;;;6.20;99.90;;;;;;5084568;28;20240;-79
2022/12/21 09:10:38;;;;;;;7.00;6.80;;;6.30;99.90;;;;;;5084855;28;20257;-79
2022/12/21 09:13:06;;;;;;;7.07;6.87;;;6.30;99.90;;;;;;5084692;28;20315;-79
2022/12/21 09:15:33;;;;;;;7.10;6.90;;;6.30;99.90;;;;;;5084220;28;20321;-79
2022/12/21 09:18:02;;;;;;;7.07;6.87;;;6.30;99.90;;;;;;5089207;28;20272;-79
2022/12/21 09:20:29;;;;;;;7.27;7.07;;;6.30;99.90;;;;;;5088582;28;20270;-79
2022/12/21 09:22:57;;;;;;;7.20;7.00;;;6.30;99.90;;;;;;5085173;28;20290;-79
2022/12/21 09:25:24;;;;;;;7.60;7.40;;;6.30;99.90;;;;;;5085300;28;20238;-79
2022/12/21 09:27:52;;;;;;;7.30;7.10;;;6.40;99.90;;;;;;5088026;28;20230;-79
2022/12/21 09:30:21;;;;;;;7.20;7.00;;;6.40;99.90;;;;;;5087138;28;20238;-79
2022/12/21 09:32:49;;;;;;;7.30;7.10;;;6.50;99.90;;;;;;5085450;28;20230;-78
2022/12/21 09:35:18;;;;;;;7.30;7.10;;;6.50;99.90;;;;;;5084387;28;20290;-80
2022/12/21 09:37:46;;;;;;;7.23;7.03;;;6.50;99.90;;;;;;5084421;28;20284;-80
2022/12/21 09:40:16;;;;;;;7.50;7.30;;;6.50;99.90;;;;;;5083580;28;20230;-80
2022/12/21 09:42:57;;;;;;;7.10;6.90;;;6.50;99.90;;;;;;5083258;28;20301;-79
2022/12/21 09:45:31;;;;;;;7.30;7.10;;;6.60;99.90;;;;;;5083121;28;20297;-79
2022/12/21 09:48:03;;;;;;;7.20;7.00;;;6.60;99.90;;;;;;5083981;28;20226;-79
2022/12/21 09:50:40;;;;;;;7.10;6.90;;;6.60;99.90;;;;;;5084371;28;20257;-79
2022/12/21 09:53:18;;;;;;;7.40;7.20;;;6.60;99.90;;;;;;5084105;28;20302;-80
2022/12/21 09:55:49;;;;;;;7.10;6.90;;;6.60;99.90;;;;;;5084344;28;20289;-79
2022/12/21 09:58:23;;;;;;;7.20;7.00;;;6.60;99.90;;;;;;5085475;28;20233;-79
2022/12/21 10:00:58;;;;;;;7.07;6.87;;;6.60;99.90;;;;;;5089255;28;20237;-79
2022/12/21 10:03:58;;;;;;;7.10;6.90;;;6.70;99.90;;;;;;5091093;28;20277;-79
2022/12/21 10:06:54;;;;;;;6.90;6.70;;;6.60;99.90;;;;;;5090630;28;20239;-79
2022/12/21 10:09:43;;;;;;;6.93;6.73;;;6.70;99.90;;;;;;5095336;28;20234;-79
2022/12/21 10:12:30;;;;;;;7.00;6.80;;;6.70;99.90;;;;;;5091309;28;20223;-81
2022/12/21 10:15:15;;;;;;;7.10;6.90;;;6.60;99.90;;;;;;5090000;28;20218;-80
2022/12/21 10:17:56;;;;;;;7.00;6.80;;;6.70;99.90;;;;;;5091149;28;20292;-79
2022/12/21 10:20:46;;;;;;;6.90;6.70;;;6.70;99.90;;;;;;5088614;28;20240;-79
2022/12/21 10:23:22;;;;;;;7.00;6.80;;;6.70;99.90;;;;;;5088777;28;20257;-80
2022/12/21 10:25:56;;;;;;;7.10;6.90;;;6.80;99.90;;;;;;5088357;28;20230;-80
2022/12/21 10:28:45;;;;;;;7.00;6.80;;;6.80;99.90;;;;;;5088463;28;20234;-80
2022/12/21 10:31:20;;;;;;;7.00;6.80;;;6.90;99.90;;;;;;5086305;28;20241;-80
2022/12/21 10:33:51;;;;;;;7.00;6.80;;;6.90;99.90;;;;;;5086527;28;20312;-80
2022/12/21 10:36:22;;;;;;;7.10;6.90;;;6.90;99.90;;;;;;5086533;28;20218;-80
2022/12/21 10:38:51;;;;;;;6.80;6.60;;;6.90;99.90;;;;;;5087231;28;20245;-80
2022/12/21 10:41:22;;;;;;;6.70;6.50;;;7.00;99.90;;;;;;5087539;28;20328;-81
2022/12/21 10:43:51;;;;;;;7.00;6.80;;;7.00;99.90;;;;;;5087575;28;20229;-80
2022/12/21 10:46:20;;;;;;;7.03;6.83;;;7.10;99.90;;;;;;5088457;28;20238;-80
2022/12/21 10:48:50;;;;;;;7.00;6.80;;;7.10;99.90;;;;;;5086906;28;20253;-80
2022/12/21 10:51:29;;;;;;;7.00;6.80;;;7.10;99.90;;;;;;5087038;28;20276;-80
2022/12/21 10:54:04;;;;;;;7.10;6.90;;;7.20;99.90;;;;;;5086746;28;20236;-79
2022/12/21 10:56:35;;;;;;;6.93;6.73;;;7.20;99.90;;;;;;5086304;28;20229;-81
2022/12/21 10:59:16;;;;;;;7.20;7.00;;;7.20;99.90;;;;;;5086630;28;20322;-80
2022/12/21 11:01:43;;;;;;;7.00;6.80;;;7.20;99.90;;;;;;5087404;28;20697;-79
2022/12/21 11:04:15;;;;;;;7.20;7.00;;;7.20;99.90;;;;;;5087444;28;20222;-80
2022/12/21 11:07:04;;;;;;;6.60;6.40;;;7.20;99.90;;;;;;5090273;28;20251;-80
2022/12/21 11:09:41;;;;;;;6.80;6.60;;;7.20;99.90;;;;;;5089000;28;20308;-80
2022/12/21 11:12:21;;;;;;;6.80;6.60;;;7.20;99.90;;;;;;5086417;28;20226;-80
2022/12/21 11:14:51;;;;;;;6.60;6.40;;;7.20;99.90;;;;;;5086348;28;20233;-79
2022/12/21 11:17:23;;;;;;;7.00;6.80;;;7.20;99.90;;;;;;5086600;28;20238;-80
2022/12/21 11:20:00;;;;;;;6.90;6.70;;;7.20;99.90;;;;;;5086367;28;20245;-80
2022/12/21 11:22:30;;;;;;;7.00;6.80;;;7.30;99.90;;;;;;5086354;28;20242;-80
2022/12/21 11:25:01;;;;;;;6.70;6.50;;;7.30;99.90;;;;;;5086932;28;20257;-80
2022/12/21 11:27:31;;;;;;;6.77;6.57;;;7.30;99.90;;;;;;5089374;28;20237;-79
2022/12/21 11:30:02;;;;;;;7.00;6.80;;;7.30;99.90;;;;;;5086329;28;20230;-80
2022/12/21 11:32:33;;;;;;;6.60;6.40;;;7.30;99.90;;;;;;5085716;28;20238;-80
2022/12/21 11:35:05;;;;;;;6.50;6.30;;;7.40;99.90;;;;;;5086482;28;20224;-80
2022/12/21 11:37:45;;;;;;;6.77;6.57;;;7.40;99.90;;;;;;5086963;28;20226;-80
2022/12/21 11:40:22;;;;;;;6.90;6.70;;;7.40;99.90;;;;;;5087380;28;20800;-80
2022/12/21 11:42:59;;;;;;;6.87;6.67;;;7.40;99.90;;;;;;5088152;28;20336;-80
2022/12/21 11:45:38;;;;;;;6.93;6.73;;;7.40;99.90;;;;;;5087265;28;20256;-81
2022/12/21 11:48:23;;;;;;;6.90;6.70;;;7.50;99.90;;;;;;5087137;28;20206;-80
2022/12/21 11:51:06;;;;;;;7.10;6.90;;;7.50;99.90;;;;;;5087671;28;20221;-80
2022/12/21 11:53:58;;;;;;;6.90;6.70;;;7.50;99.90;;;;;;5087895;28;20237;-80
2022/12/21 11:56:35;;;;;;;6.93;6.73;;;7.60;99.90;;;;;;5086485;28;20276;-81
2022/12/21 11:59:45;;;;;;;6.90;6.70;;;7.60;99.90;;;;;;5095934;28;20213;-80
2022/12/21 12:02:40;;;;;;;7.00;6.80;;;7.70;99.90;;;;;;5079707;28;20238;-79
2022/12/21 12:05:27;;;;;;;6.70;6.50;;;7.80;99.90;;;;;;5092673;28;20237;-80
2022/12/21 12:08:01;;;;;;;6.53;6.33;;;7.80;99.90;;;;;;5090017;28;20301;-80
2022/12/21 12:10:53;;;;;;;6.73;6.53;;;7.90;99.90;;;;;;5087962;28;20226;-80
2022/12/21 12:13:37;;;;;;;6.70;6.50;;;7.90;99.90;;;;;;5087852;28;20261;-80
2022/12/21 12:16:16;;;;;;;6.47;6.27;;;8.00;99.90;;;;;;5125475;22;20306;-80
2022/12/21 12:18:56;;;;;;;6.37;6.17;;;8.10;99.90;;;;;;5086471;28;20233;-81
2022/12/21 12:21:44;;;;;;;6.40;6.20;;;8.20;99.90;;;;;;5085480;28;20241;-81
2022/12/21 12:25:08;;;;;;;6.37;6.17;;;8.20;99.90;;;;;;5086414;28;20342;-81
2022/12/21 12:27:58;;;;;;;6.30;6.10;;;8.30;99.90;;;;;;5073785;28;20329;-81
2022/12/21 12:30:43;;;;;;;6.07;5.97;;;8.30;99.90;;;;;;5086462;28;20238;-81
2022/12/21 12:33:21;;;;;;;6.00;5.90;;;8.30;99.90;;;;;;5086335;28;20222;-81
2022/12/21 12:39:04;;;;;;;6.27;6.10;;;8.40;99.90;;;;;;5085652;28;20233;-81
2022/12/21 12:41:42;;;;;;;5.50;5.40;;;8.50;99.90;;;;;;5086829;28;20262;-81
2022/12/21 12:44:21;;;;;;;6.03;5.93;;;8.50;99.90;;;;;;5086012;28;20286;-81
2022/12/21 12:47:15;;;;;;;6.60;6.40;;;8.60;99.90;;;;;;5089050;28;20298;-81
2022/12/21 12:50:11;;;;;;;6.43;6.23;;;8.60;99.90;;;;;;5088186;28;20300;-81
2022/12/21 12:53:15;;;;;;;6.50;6.30;;;8.70;99.90;;;;;;5087046;28;20245;-81
2022/12/21 12:55:54;;;;;;;6.30;6.10;;;8.80;99.90;;;;;;5086125;28;20238;-82
2022/12/21 12:58:32;;;;;;;6.10;6.00;;;8.80;99.90;;;;;;5089009;28;20241;-81
2022/12/21 13:01:12;;;;;;;6.00;5.90;;;8.80;99.90;;;;;;5087345;28;20238;-82
2022/12/21 13:04:24;;;;;;;6.03;5.93;;;8.90;99.90;;;;;;5087622;28;20222;-83
2022/12/21 13:07:03;;;;;;;6.50;6.30;;;8.90;99.90;;;;;;5084867;28;20222;-83
2022/12/21 13:09:51;;;;;;;6.30;6.10;;;9.00;99.90;;;;;;5083694;28;20232;-82
2022/12/21 13:12:28;;;;;;;6.27;6.07;;;9.00;99.90;;;;;;5083907;28;20257;-82
2022/12/21 13:15:07;;;;;;;6.30;6.10;;;9.10;99.90;;;;;;5085364;28;20233;-83
2022/12/21 13:17:44;;;;;;;6.33;6.13;;;9.20;99.90;;;;;;5092172;28;20760;-83
2022/12/21 13:20:23;;;;;;;6.30;6.10;;;9.40;99.90;;;;;;5088631;28;20312;-81
2022/12/21 13:23:02;;;;;;;6.80;6.60;;;9.60;99.90;;;;;;5089664;28;20230;-82
2022/12/21 13:25:39;;;;;;;6.47;6.27;;;9.80;99.90;;;;;;5086445;28;20287;-83
2022/12/21 13:28:17;;;;;;;6.50;6.30;;;10.00;99.90;;;;;;5085180;28;20214;-82
2022/12/21 13:30:47;;;;;;;6.50;6.30;;;10.20;99.90;;;;;;5085361;28;20294;-83
2022/12/21 13:33:17;;;;;;;6.50;6.30;;;10.40;99.90;;;;;;5087853;28;20240;-83
2022/12/21 13:35:56;;;;;;;6.73;6.53;;;10.50;99.90;;;;;;5090993;28;20253;-83
2022/12/21 13:38:32;;;;;;;7.00;6.80;;;10.70;99.90;;;;;;5091885;28;20321;-83
2022/12/21 13:41:06;;;;;;;7.33;7.13;;;11.00;99.90;;;;;;5090573;28;20237;-83
2022/12/21 13:43:42;;;;;;;7.40;7.20;;;11.20;99.90;;;;;;5091730;28;20245;-83
2022/12/21 13:46:12;;;;;;;7.60;7.40;;;11.30;99.90;;;;;;5091460;28;20275;-83
2022/12/21 13:48:49;;;;;;;7.50;7.30;;;11.30;99.90;;;;;;5090953;28;20261;-83
2022/12/21 13:51:55;;;;;;;7.57;7.37;;;11.20;99.90;;;;;;5091277;28;20256;-82
2022/12/21 13:54:33;;;;;;;7.47;7.27;;;11.20;99.90;;;;;;5091408;28;20229;-82
2022/12/21 13:57:19;;;;;;;7.20;7.00;;;11.00;99.90;;;;;;5091301;28;20284;-82
2022/12/21 13:59:58;;;;;;;7.40;7.20;;;10.90;99.90;;;;;;5091671;28;20270;-80
2022/12/21 14:02:53;;;;;;;7.07;6.87;;;10.90;99.90;;;;;;5092059;28;20244;-80
2022/12/21 14:05:24;;;;;;;6.80;6.60;;;10.80;99.90;;;;;;5091513;28;20321;-80
2022/12/21 14:08:36;;;;;;;7.00;6.80;;;10.90;99.90;;;;;;5090708;28;20389;-84